Mc Laughlin, South Dakota
Current Conditions -  °F | °C
As of 9:52 AM on Saturday 22 Nov 2014 (Local Time) from KMBG Reporting Station
Clear Clear  
Wind Chill: 27°   Ceiling: Unl
Heat Index: 36°   Visibility: 10mi
Dew Point: 29°   Wind: 14mph
Humidity: 76%   Direction: 170°S
Pressure: 29.47"   Gusts: NA
Location:  45.6923°N, 100.994°W
Report Text: KMBG 221652Z AUTO 17012KT 10SM CLR 02/M02 A2947 RMK AO2 SLP994 T00221017
Loading
Personal Weather Stations






























Interactive Weather Map New forecast layout! Learn more

10-Day Weather Forecast

Advertisements
Track Severe Weather on mobile